X  Lukk Metar værinformasjon om luftfart     ENRY Moss Airport, Rygge
Temperatur
13°C Temperatur
-2°C Duggpunkt
36% Luftfuktighet



Vind
4 M/S
8 MPT
13 KM/T
7 KNP



30°
NNØ
Nåværende forhold

Klart Klart
Trykk 1029.92 (hPa) - 30.41 (inHg)
Sikt 6.2 (mil) - 10 (km)
Flyplass
Flyplass-kode ENRY

Plassering: Moss Airport, Rygge
Avstand: 12 (km)

Metar:
ENRY 161450Z 03007KT 340V080 CAVOK 13/M02 Q1030

Tid: 16-04-2021 16:50 CEST